sensor_id;sensor_type;location;lat;lon;timestamp;temperature;humidity
5868;DHT22;2960;49.142;7.768;2023-07-09T00:00:15;24.40;53.40
5868;DHT22;2960;49.142;7.768;2023-07-09T00:02:45;24.40;53.60
5868;DHT22;2960;49.142;7.768;2023-07-09T00:05:14;24.30;53.60
5868;DHT22;2960;49.142;7.768;2023-07-09T00:07:45;24.30;53.70
5868;DHT22;2960;49.142;7.768;2023-07-09T00:10:17;24.30;54.30
5868;DHT22;2960;49.142;7.768;2023-07-09T00:12:46;24.20;53.70
5868;DHT22;2960;49.142;7.768;2023-07-09T00:15:14;24.20;53.80
5868;DHT22;2960;49.142;7.768;2023-07-09T00:17:43;24.20;53.80
5868;DHT22;2960;49.142;7.768;2023-07-09T00:20:15;24.20;53.90
5868;DHT22;2960;49.142;7.768;2023-07-09T00:22:44;24.10;53.90
5868;DHT22;2960;49.142;7.768;2023-07-09T00:25:18;24.10;53.90
5868;DHT22;2960;49.142;7.768;2023-07-09T00:27:46;24.10;54.10
5868;DHT22;2960;49.142;7.768;2023-07-09T00:30:18;24.00;54.70
5868;DHT22;2960;49.142;7.768;2023-07-09T00:32:49;24.00;54.20
5868;DHT22;2960;49.142;7.768;2023-07-09T00:35:18;24.00;54.80
5868;DHT22;2960;49.142;7.768;2023-07-09T00:37:45;23.90;54.20
5868;DHT22;2960;49.142;7.768;2023-07-09T00:40:17;23.90;54.40
5868;DHT22;2960;49.142;7.768;2023-07-09T00:42:47;23.80;54.40
5868;DHT22;2960;49.142;7.768;2023-07-09T00:45:19;23.80;55.20
5868;DHT22;2960;49.142;7.768;2023-07-09T00:47:57;23.70;54.60
5868;DHT22;2960;49.142;7.768;2023-07-09T00:50:33;23.70;54.70
5868;DHT22;2960;49.142;7.768;2023-07-09T00:53:08;23.70;54.80
5868;DHT22;2960;49.142;7.768;2023-07-09T00:55:41;23.70;54.80
5868;DHT22;2960;49.142;7.768;2023-07-09T00:58:12;23.70;54.80
5868;DHT22;2960;49.142;7.768;2023-07-09T01:00:44;23.60;54.80
5868;DHT22;2960;49.142;7.768;2023-07-09T01:03:27;23.60;54.80
5868;DHT22;2960;49.142;7.768;2023-07-09T01:05:57;23.50;54.90
5868;DHT22;2960;49.142;7.768;2023-07-09T01:08:25;23.50;55.00
5868;DHT22;2960;49.142;7.768;2023-07-09T01:10:57;23.50;55.10
5868;DHT22;2960;49.142;7.768;2023-07-09T01:13:25;23.40;55.70
5868;DHT22;2960;49.142;7.768;2023-07-09T01:15:53;23.40;55.10
5868;DHT22;2960;49.142;7.768;2023-07-09T01:18:23;23.30;55.20
5868;DHT22;2960;49.142;7.768;2023-07-09T01:20:51;23.30;55.30
5868;DHT22;2960;49.142;7.768;2023-07-09T01:23:20;23.30;55.40
5868;DHT22;2960;49.142;7.768;2023-07-09T01:25:51;23.30;55.50
5868;DHT22;2960;49.142;7.768;2023-07-09T01:28:20;23.20;55.50
5868;DHT22;2960;49.142;7.768;2023-07-09T01:30:48;23.20;55.50
5868;DHT22;2960;49.142;7.768;2023-07-09T01:33:20;23.20;55.60
5868;DHT22;2960;49.142;7.768;2023-07-09T01:35:49;23.10;55.60
5868;DHT22;2960;49.142;7.768;2023-07-09T01:38:19;23.10;55.70
5868;DHT22;2960;49.142;7.768;2023-07-09T01:40:47;23.10;55.70
5868;DHT22;2960;49.142;7.768;2023-07-09T01:43:14;23.10;55.80
5868;DHT22;2960;49.142;7.768;2023-07-09T01:45:41;23.00;55.70
5868;DHT22;2960;49.142;7.768;2023-07-09T01:48:08;23.00;55.80
5868;DHT22;2960;49.142;7.768;2023-07-09T01:50:39;23.00;55.90
5868;DHT22;2960;49.142;7.768;2023-07-09T01:53:07;23.00;56.00
5868;DHT22;2960;49.142;7.768;2023-07-09T01:55:36;22.90;56.10
5868;DHT22;2960;49.142;7.768;2023-07-09T01:58:03;22.80;56.10
5868;DHT22;2960;49.142;7.768;2023-07-09T02:00:32;22.80;56.30
5868;DHT22;2960;49.142;7.768;2023-07-09T02:03:01;22.70;56.40
5868;DHT22;2960;49.142;7.768;2023-07-09T02:05:31;22.70;56.50
5868;DHT22;2960;49.142;7.768;2023-07-09T02:07:59;22.70;56.50
5868;DHT22;2960;49.142;7.768;2023-07-09T02:10:26;22.70;56.60
5868;DHT22;2960;49.142;7.768;2023-07-09T02:12:54;22.60;56.50
5868;DHT22;2960;49.142;7.768;2023-07-09T02:15:22;22.60;56.50
5868;DHT22;2960;49.142;7.768;2023-07-09T02:17:49;22.60;56.60
5868;DHT22;2960;49.142;7.768;2023-07-09T02:20:18;22.60;56.60
5868;DHT22;2960;49.142;7.768;2023-07-09T02:22:45;22.50;56.60
5868;DHT22;2960;49.142;7.768;2023-07-09T02:25:12;22.50;56.60
5868;DHT22;2960;49.142;7.768;2023-07-09T02:27:39;22.50;56.70
5868;DHT22;2960;49.142;7.768;2023-07-09T02:30:09;22.40;57.30
5868;DHT22;2960;49.142;7.768;2023-07-09T02:32:37;22.40;56.90
5868;DHT22;2960;49.142;7.768;2023-07-09T02:35:05;22.30;57.10
5868;DHT22;2960;49.142;7.768;2023-07-09T02:37:33;22.20;57.30
5868;DHT22;2960;49.142;7.768;2023-07-09T02:40:00;22.20;57.40
5868;DHT22;2960;49.142;7.768;2023-07-09T02:42:27;22.10;57.50
5868;DHT22;2960;49.142;7.768;2023-07-09T02:44:54;22.00;57.50
5868;DHT22;2960;49.142;7.768;2023-07-09T02:47:23;22.00;57.60
5868;DHT22;2960;49.142;7.768;2023-07-09T02:49:50;22.00;57.60
5868;DHT22;2960;49.142;7.768;2023-07-09T02:52:17;22.00;57.60
5868;DHT22;2960;49.142;7.768;2023-07-09T02:54:47;22.00;57.60
5868;DHT22;2960;49.142;7.768;2023-07-09T02:57:14;22.00;58.20
5868;DHT22;2960;49.142;7.768;2023-07-09T02:59:42;22.00;57.60
5868;DHT22;2960;49.142;7.768;2023-07-09T03:02:10;21.90;57.50
5868;DHT22;2960;49.142;7.768;2023-07-09T03:04:41;21.90;57.60
5868;DHT22;2960;49.142;7.768;2023-07-09T03:07:08;21.90;57.70
5868;DHT22;2960;49.142;7.768;2023-07-09T03:09:35;21.80;57.70
5868;DHT22;2960;49.142;7.768;2023-07-09T03:12:02;21.80;57.80
5868;DHT22;2960;49.142;7.768;2023-07-09T03:14:29;21.80;57.90
5868;DHT22;2960;49.142;7.768;2023-07-09T03:16:56;21.70;57.80
5868;DHT22;2960;49.142;7.768;2023-07-09T03:19:23;21.70;58.00
5868;DHT22;2960;49.142;7.768;2023-07-09T03:21:51;21.70;58.10
5868;DHT22;2960;49.142;7.768;2023-07-09T03:24:18;21.70;58.10
5868;DHT22;2960;49.142;7.768;2023-07-09T03:26:46;21.60;58.00
5868;DHT22;2960;49.142;7.768;2023-07-09T03:29:13;21.60;58.10
5868;DHT22;2960;49.142;7.768;2023-07-09T03:31:40;21.60;58.00
5868;DHT22;2960;49.142;7.768;2023-07-09T03:34:07;21.60;58.10
5868;DHT22;2960;49.142;7.768;2023-07-09T03:36:34;21.60;58.10
5868;DHT22;2960;49.142;7.768;2023-07-09T03:39:04;21.60;58.20
5868;DHT22;2960;49.142;7.768;2023-07-09T03:41:34;21.50;58.10
5868;DHT22;2960;49.142;7.768;2023-07-09T03:44:01;21.50;58.20
5868;DHT22;2960;49.142;7.768;2023-07-09T03:46:28;21.50;58.30
5868;DHT22;2960;49.142;7.768;2023-07-09T03:48:58;21.50;58.40
5868;DHT22;2960;49.142;7.768;2023-07-09T03:51:26;21.40;58.40
5868;DHT22;2960;49.142;7.768;2023-07-09T03:53:53;21.40;58.40
5868;DHT22;2960;49.142;7.768;2023-07-09T03:56:21;21.40;58.40
5868;DHT22;2960;49.142;7.768;2023-07-09T03:58:49;21.40;58.50
5868;DHT22;2960;49.142;7.768;2023-07-09T04:01:16;21.30;58.50
5868;DHT22;2960;49.142;7.768;2023-07-09T04:03:43;21.30;58.50
5868;DHT22;2960;49.142;7.768;2023-07-09T04:06:10;21.30;58.50
5868;DHT22;2960;49.142;7.768;2023-07-09T04:08:38;21.30;58.50
5868;DHT22;2960;49.142;7.768;2023-07-09T04:11:05;21.30;58.60
5868;DHT22;2960;49.142;7.768;2023-07-09T04:13:34;21.30;58.60
5868;DHT22;2960;49.142;7.768;2023-07-09T04:16:01;21.30;58.60
5868;DHT22;2960;49.142;7.768;2023-07-09T04:18:28;21.30;58.60
5868;DHT22;2960;49.142;7.768;2023-07-09T04:20:55;21.30;58.70
5868;DHT22;2960;49.142;7.768;2023-07-09T04:23:22;21.30;58.80
5868;DHT22;2960;49.142;7.768;2023-07-09T04:25:49;21.30;58.90
5868;DHT22;2960;49.142;7.768;2023-07-09T04:28:16;21.20;58.90
5868;DHT22;2960;49.142;7.768;2023-07-09T04:30:49;21.30;59.00
5868;DHT22;2960;49.142;7.768;2023-07-09T04:33:18;21.30;59.00
5868;DHT22;2960;49.142;7.768;2023-07-09T04:35:46;21.30;59.00
5868;DHT22;2960;49.142;7.768;2023-07-09T04:38:14;21.30;59.60
5868;DHT22;2960;49.142;7.768;2023-07-09T04:40:44;21.30;59.00
5868;DHT22;2960;49.142;7.768;2023-07-09T04:43:13;21.40;59.10
5868;DHT22;2960;49.142;7.768;2023-07-09T04:45:40;21.40;59.10
5868;DHT22;2960;49.142;7.768;2023-07-09T04:48:09;21.40;59.10
5868;DHT22;2960;49.142;7.768;2023-07-09T04:50:36;21.50;59.10
5868;DHT22;2960;49.142;7.768;2023-07-09T04:53:03;21.50;59.10
5868;DHT22;2960;49.142;7.768;2023-07-09T04:55:30;21.60;59.10
5868;DHT22;2960;49.142;7.768;2023-07-09T04:57:57;21.60;59.10
5868;DHT22;2960;49.142;7.768;2023-07-09T05:00:24;21.60;59.10
5868;DHT22;2960;49.142;7.768;2023-07-09T05:02:51;21.70;59.20
5868;DHT22;2960;49.142;7.768;2023-07-09T05:05:20;21.70;59.20
5868;DHT22;2960;49.142;7.768;2023-07-09T05:07:47;21.70;59.70
5868;DHT22;2960;49.142;7.768;2023-07-09T05:10:14;21.80;59.20
5868;DHT22;2960;49.142;7.768;2023-07-09T05:12:49;21.80;59.20
5868;DHT22;2960;49.142;7.768;2023-07-09T05:15:17;21.90;59.80
5868;DHT22;2960;49.142;7.768;2023-07-09T05:17:44;22.00;59.20
5868;DHT22;2960;49.142;7.768;2023-07-09T05:20:13;22.10;59.20
5868;DHT22;2960;49.142;7.768;2023-07-09T05:22:41;22.10;59.20
5868;DHT22;2960;49.142;7.768;2023-07-09T05:25:09;22.20;59.20
5868;DHT22;2960;49.142;7.768;2023-07-09T05:27:39;22.20;59.20
5868;DHT22;2960;49.142;7.768;2023-07-09T05:30:07;22.30;59.20
5868;DHT22;2960;49.142;7.768;2023-07-09T05:32:36;22.30;59.20
5868;DHT22;2960;49.142;7.768;2023-07-09T05:35:05;22.40;59.30
5868;DHT22;2960;49.142;7.768;2023-07-09T05:37:32;22.50;59.30
5868;DHT22;2960;49.142;7.768;2023-07-09T05:40:01;22.60;59.30
5868;DHT22;2960;49.142;7.768;2023-07-09T05:42:30;22.60;59.20
5868;DHT22;2960;49.142;7.768;2023-07-09T05:44:57;22.70;59.20
5868;DHT22;2960;49.142;7.768;2023-07-09T05:47:24;22.80;59.10
5868;DHT22;2960;49.142;7.768;2023-07-09T05:49:52;22.90;59.10
5868;DHT22;2960;49.142;7.768;2023-07-09T05:52:22;23.10;59.10
5868;DHT22;2960;49.142;7.768;2023-07-09T05:54:51;23.10;58.90
5868;DHT22;2960;49.142;7.768;2023-07-09T05:57:20;23.20;58.90
5868;DHT22;2960;49.142;7.768;2023-07-09T05:59:47;23.30;58.90
5868;DHT22;2960;49.142;7.768;2023-07-09T06:02:16;23.40;58.90
5868;DHT22;2960;49.142;7.768;2023-07-09T06:04:45;23.50;58.90
5868;DHT22;2960;49.142;7.768;2023-07-09T06:07:15;23.60;58.90
5868;DHT22;2960;49.142;7.768;2023-07-09T06:09:44;23.70;58.80
5868;DHT22;2960;49.142;7.768;2023-07-09T06:12:12;23.80;58.70
5868;DHT22;2960;49.142;7.768;2023-07-09T06:14:40;23.90;58.70
5868;DHT22;2960;49.142;7.768;2023-07-09T06:17:08;24.00;58.70
5868;DHT22;2960;49.142;7.768;2023-07-09T06:19:35;24.10;58.70
5868;DHT22;2960;49.142;7.768;2023-07-09T06:22:02;24.20;58.70
5868;DHT22;2960;49.142;7.768;2023-07-09T06:24:29;24.30;58.60
5868;DHT22;2960;49.142;7.768;2023-07-09T06:26:56;24.40;58.70
5868;DHT22;2960;49.142;7.768;2023-07-09T06:29:25;24.50;58.60
5868;DHT22;2960;49.142;7.768;2023-07-09T06:31:53;24.60;58.60
5868;DHT22;2960;49.142;7.768;2023-07-09T06:34:21;24.60;58.50
5868;DHT22;2960;49.142;7.768;2023-07-09T06:36:48;24.80;58.50
5868;DHT22;2960;49.142;7.768;2023-07-09T06:39:15;24.90;58.50
5868;DHT22;2960;49.142;7.768;2023-07-09T06:41:42;25.00;58.40
5868;DHT22;2960;49.142;7.768;2023-07-09T06:44:09;25.00;58.30
5868;DHT22;2960;49.142;7.768;2023-07-09T06:46:37;25.20;58.30
5868;DHT22;2960;49.142;7.768;2023-07-09T06:49:06;25.20;58.10
5868;DHT22;2960;49.142;7.768;2023-07-09T06:51:33;25.30;58.10
5868;DHT22;2960;49.142;7.768;2023-07-09T06:54:00;25.40;58.10
5868;DHT22;2960;49.142;7.768;2023-07-09T06:56:27;25.50;58.00
5868;DHT22;2960;49.142;7.768;2023-07-09T06:58:54;25.60;57.90
5868;DHT22;2960;49.142;7.768;2023-07-09T07:01:21;25.70;57.70
5868;DHT22;2960;49.142;7.768;2023-07-09T07:03:48;25.80;57.60
5868;DHT22;2960;49.142;7.768;2023-07-09T07:06:17;25.90;57.50
5868;DHT22;2960;49.142;7.768;2023-07-09T07:08:44;26.00;57.40
5868;DHT22;2960;49.142;7.768;2023-07-09T07:11:11;26.10;57.80
5868;DHT22;2960;49.142;7.768;2023-07-09T07:13:40;26.20;57.10
5868;DHT22;2960;49.142;7.768;2023-07-09T07:16:10;26.30;57.00
5868;DHT22;2960;49.142;7.768;2023-07-09T07:18:38;26.40;56.80
5868;DHT22;2960;49.142;7.768;2023-07-09T07:21:06;26.50;56.70
5868;DHT22;2960;49.142;7.768;2023-07-09T07:23:34;26.60;56.40
5868;DHT22;2960;49.142;7.768;2023-07-09T07:26:01;26.70;56.30
5868;DHT22;2960;49.142;7.768;2023-07-09T07:28:29;26.90;56.20
5868;DHT22;2960;49.142;7.768;2023-07-09T07:31:00;27.00;56.10
5868;DHT22;2960;49.142;7.768;2023-07-09T07:33:27;27.10;56.00
5868;DHT22;2960;49.142;7.768;2023-07-09T07:35:56;27.20;55.90
5868;DHT22;2960;49.142;7.768;2023-07-09T07:38:24;27.30;55.80
5868;DHT22;2960;49.142;7.768;2023-07-09T07:40:53;27.40;56.40
5868;DHT22;2960;49.142;7.768;2023-07-09T07:43:20;27.50;55.60
5868;DHT22;2960;49.142;7.768;2023-07-09T07:45:48;27.70;55.50
5868;DHT22;2960;49.142;7.768;2023-07-09T07:48:15;27.70;55.30
5868;DHT22;2960;49.142;7.768;2023-07-09T07:50:42;27.90;55.30
5868;DHT22;2960;49.142;7.768;2023-07-09T07:53:12;28.00;55.20
5868;DHT22;2960;49.142;7.768;2023-07-09T07:55:39;28.10;55.10
5868;DHT22;2960;49.142;7.768;2023-07-09T07:58:09;28.30;55.00
5868;DHT22;2960;49.142;7.768;2023-07-09T08:00:38;28.40;54.90
5868;DHT22;2960;49.142;7.768;2023-07-09T08:03:05;28.50;54.80
5868;DHT22;2960;49.142;7.768;2023-07-09T08:05:32;28.70;54.60
5868;DHT22;2960;49.142;7.768;2023-07-09T08:07:59;28.80;54.50
5868;DHT22;2960;49.142;7.768;2023-07-09T08:10:26;28.90;54.40
5868;DHT22;2960;49.142;7.768;2023-07-09T08:12:53;29.00;54.20
5868;DHT22;2960;49.142;7.768;2023-07-09T08:15:24;29.10;54.10
5868;DHT22;2960;49.142;7.768;2023-07-09T08:17:53;29.30;54.00
5868;DHT22;2960;49.142;7.768;2023-07-09T08:20:20;29.40;54.40
5868;DHT22;2960;49.142;7.768;2023-07-09T08:22:48;29.50;53.80
5868;DHT22;2960;49.142;7.768;2023-07-09T08:25:15;29.60;53.60
5868;DHT22;2960;49.142;7.768;2023-07-09T08:27:45;29.70;53.40
5868;DHT22;2960;49.142;7.768;2023-07-09T08:30:12;29.90;53.20
5868;DHT22;2960;49.142;7.768;2023-07-09T08:32:41;30.00;53.60
5868;DHT22;2960;49.142;7.768;2023-07-09T08:35:08;30.10;52.70
5868;DHT22;2960;49.142;7.768;2023-07-09T08:37:37;30.30;52.40
5868;DHT22;2960;49.142;7.768;2023-07-09T08:40:07;30.40;52.20
5868;DHT22;2960;49.142;7.768;2023-07-09T08:42:43;30.50;52.00
5868;DHT22;2960;49.142;7.768;2023-07-09T08:45:22;30.70;51.80
5868;DHT22;2960;49.142;7.768;2023-07-09T08:48:02;30.80;51.60
5868;DHT22;2960;49.142;7.768;2023-07-09T08:50:36;31.00;51.50
5868;DHT22;2960;49.142;7.768;2023-07-09T08:53:05;31.10;51.90
5868;DHT22;2960;49.142;7.768;2023-07-09T08:55:34;31.20;51.00
5868;DHT22;2960;49.142;7.768;2023-07-09T08:58:11;31.30;50.80
5868;DHT22;2960;49.142;7.768;2023-07-09T09:00:44;31.50;50.60
5868;DHT22;2960;49.142;7.768;2023-07-09T09:03:27;31.60;49.90
5868;DHT22;2960;49.142;7.768;2023-07-09T09:06:01;31.70;49.50
5868;DHT22;2960;49.142;7.768;2023-07-09T09:08:36;31.80;49.20
5868;DHT22;2960;49.142;7.768;2023-07-09T09:11:13;31.90;48.90
5868;DHT22;2960;49.142;7.768;2023-07-09T09:13:46;32.00;48.70
5868;DHT22;2960;49.142;7.768;2023-07-09T09:16:21;32.10;48.30
5868;DHT22;2960;49.142;7.768;2023-07-09T09:18:55;32.20;48.10
5868;DHT22;2960;49.142;7.768;2023-07-09T09:21:28;32.40;47.80
5868;DHT22;2960;49.142;7.768;2023-07-09T09:24:02;32.40;47.20
5868;DHT22;2960;49.142;7.768;2023-07-09T09:26:39;32.50;46.80
5868;DHT22;2960;49.142;7.768;2023-07-09T09:29:11;32.50;46.70
5868;DHT22;2960;49.142;7.768;2023-07-09T09:31:41;32.60;46.30
5868;DHT22;2960;49.142;7.768;2023-07-09T09:34:19;32.60;45.90
5868;DHT22;2960;49.142;7.768;2023-07-09T09:36:46;32.70;45.60
5868;DHT22;2960;49.142;7.768;2023-07-09T09:39:14;32.70;45.40
5868;DHT22;2960;49.142;7.768;2023-07-09T09:41:44;32.80;45.30
5868;DHT22;2960;49.142;7.768;2023-07-09T09:44:18;32.80;45.10
5868;DHT22;2960;49.142;7.768;2023-07-09T09:46:48;33.00;44.90
5868;DHT22;2960;49.142;7.768;2023-07-09T09:49:18;33.00;44.70
5868;DHT22;2960;49.142;7.768;2023-07-09T09:51:46;33.10;44.50
5868;DHT22;2960;49.142;7.768;2023-07-09T09:54:17;33.20;44.30
5868;DHT22;2960;49.142;7.768;2023-07-09T09:56:48;33.40;44.00
5868;DHT22;2960;49.142;7.768;2023-07-09T09:59:19;33.50;43.80
5868;DHT22;2960;49.142;7.768;2023-07-09T10:01:56;33.60;43.60
5868;DHT22;2960;49.142;7.768;2023-07-09T10:04:26;33.80;43.20
5868;DHT22;2960;49.142;7.768;2023-07-09T10:06:56;33.80;43.10
5868;DHT22;2960;49.142;7.768;2023-07-09T10:09:42;33.90;43.00
5868;DHT22;2960;49.142;7.768;2023-07-09T10:12:17;34.10;42.80
5868;DHT22;2960;49.142;7.768;2023-07-09T10:14:58;34.20;42.40
5868;DHT22;2960;49.142;7.768;2023-07-09T10:17:36;34.30;42.10
5868;DHT22;2960;49.142;7.768;2023-07-09T10:20:14;34.50;41.90
5868;DHT22;2960;49.142;7.768;2023-07-09T10:22:54;34.50;41.30
5868;DHT22;2960;49.142;7.768;2023-07-09T10:25:46;34.60;40.90
5868;DHT22;2960;49.142;7.768;2023-07-09T10:28:33;34.70;40.60
5868;DHT22;2960;49.142;7.768;2023-07-09T10:31:14;34.70;40.30
5868;DHT22;2960;49.142;7.768;2023-07-09T10:33:56;34.80;39.50
5868;DHT22;2960;49.142;7.768;2023-07-09T10:36:42;34.80;39.40
5868;DHT22;2960;49.142;7.768;2023-07-09T10:39:18;34.90;38.80
5868;DHT22;2960;49.142;7.768;2023-07-09T10:41:50;34.90;38.60
5868;DHT22;2960;49.142;7.768;2023-07-09T10:44:21;34.90;37.90
5868;DHT22;2960;49.142;7.768;2023-07-09T10:46:55;34.90;37.90
5868;DHT22;2960;49.142;7.768;2023-07-09T10:49:30;35.00;37.60
5868;DHT22;2960;49.142;7.768;2023-07-09T10:52:06;35.00;37.30
5868;DHT22;2960;49.142;7.768;2023-07-09T10:54:39;35.10;37.20
5868;DHT22;2960;49.142;7.768;2023-07-09T10:57:16;35.10;37.20
5868;DHT22;2960;49.142;7.768;2023-07-09T10:59:48;35.20;37.00
5868;DHT22;2960;49.142;7.768;2023-07-09T11:02:24;35.30;36.90
5868;DHT22;2960;49.142;7.768;2023-07-09T11:04:55;35.30;36.10
5868;DHT22;2960;49.142;7.768;2023-07-09T11:07:27;35.30;35.50
5868;DHT22;2960;49.142;7.768;2023-07-09T11:09:58;35.40;35.20
5868;DHT22;2960;49.142;7.768;2023-07-09T11:12:31;35.40;34.90
5868;DHT22;2960;49.142;7.768;2023-07-09T11:15:03;35.40;35.00
5868;DHT22;2960;49.142;7.768;2023-07-09T11:17:32;35.40;34.80
5868;DHT22;2960;49.142;7.768;2023-07-09T11:20:07;35.50;34.80
5868;DHT22;2960;49.142;7.768;2023-07-09T11:22:52;35.60;34.60
5868;DHT22;2960;49.142;7.768;2023-07-09T11:25:30;35.70;34.60
5868;DHT22;2960;49.142;7.768;2023-07-09T11:28:06;35.80;34.50
5868;DHT22;2960;49.142;7.768;2023-07-09T11:30:46;35.90;34.40
5868;DHT22;2960;49.142;7.768;2023-07-09T11:33:20;36.00;34.70
5868;DHT22;2960;49.142;7.768;2023-07-09T11:35:53;36.10;34.30
5868;DHT22;2960;49.142;7.768;2023-07-09T11:38:39;36.20;34.20
5868;DHT22;2960;49.142;7.768;2023-07-09T11:41:25;36.30;34.00
5868;DHT22;2960;49.142;7.768;2023-07-09T11:44:03;36.40;33.90
5868;DHT22;2960;49.142;7.768;2023-07-09T11:46:32;36.40;33.80
5868;DHT22;2960;49.142;7.768;2023-07-09T11:49:02;36.40;33.70
5868;DHT22;2960;49.142;7.768;2023-07-09T11:51:37;36.40;33.70
5868;DHT22;2960;49.142;7.768;2023-07-09T11:54:11;36.40;33.60
5868;DHT22;2960;49.142;7.768;2023-07-09T11:56:39;36.40;33.60
5868;DHT22;2960;49.142;7.768;2023-07-09T11:59:10;36.40;33.40
5868;DHT22;2960;49.142;7.768;2023-07-09T12:01:42;36.40;33.50
5868;DHT22;2960;49.142;7.768;2023-07-09T12:04:13;36.40;33.50
5868;DHT22;2960;49.142;7.768;2023-07-09T12:06:41;36.30;33.30
5868;DHT22;2960;49.142;7.768;2023-07-09T12:09:14;36.30;33.30
5868;DHT22;2960;49.142;7.768;2023-07-09T12:11:44;36.30;33.20
5868;DHT22;2960;49.142;7.768;2023-07-09T12:14:13;36.30;33.10
5868;DHT22;2960;49.142;7.768;2023-07-09T12:16:43;36.40;33.10
5868;DHT22;2960;49.142;7.768;2023-07-09T12:19:14;36.40;33.10
5868;DHT22;2960;49.142;7.768;2023-07-09T12:21:44;36.40;33.00
5868;DHT22;2960;49.142;7.768;2023-07-09T12:24:19;36.40;33.00
5868;DHT22;2960;49.142;7.768;2023-07-09T12:26:49;36.40;33.00
5868;DHT22;2960;49.142;7.768;2023-07-09T12:29:17;36.40;33.00
5868;DHT22;2960;49.142;7.768;2023-07-09T12:31:45;36.40;33.00
5868;DHT22;2960;49.142;7.768;2023-07-09T12:34:13;36.40;33.60
5868;DHT22;2960;49.142;7.768;2023-07-09T12:36:46;36.40;32.90
5868;DHT22;2960;49.142;7.768;2023-07-09T12:39:21;36.40;32.70
5868;DHT22;2960;49.142;7.768;2023-07-09T12:41:54;36.40;32.70
5868;DHT22;2960;49.142;7.768;2023-07-09T12:44:24;36.40;32.70
5868;DHT22;2960;49.142;7.768;2023-07-09T12:46:53;36.40;32.60
5868;DHT22;2960;49.142;7.768;2023-07-09T12:49:22;36.50;32.60
5868;DHT22;2960;49.142;7.768;2023-07-09T12:51:51;36.50;32.60
5868;DHT22;2960;49.142;7.768;2023-07-09T12:54:28;36.50;32.70
5868;DHT22;2960;49.142;7.768;2023-07-09T12:56:58;36.60;32.60
5868;DHT22;2960;49.142;7.768;2023-07-09T12:59:27;36.60;33.20
5868;DHT22;2960;49.142;7.768;2023-07-09T13:02:11;36.70;32.60
5868;DHT22;2960;49.142;7.768;2023-07-09T13:04:42;36.80;32.60
5868;DHT22;2960;49.142;7.768;2023-07-09T13:07:26;36.80;32.60
5868;DHT22;2960;49.142;7.768;2023-07-09T13:09:56;36.80;32.50
5868;DHT22;2960;49.142;7.768;2023-07-09T13:12:30;36.80;32.40
5868;DHT22;2960;49.142;7.768;2023-07-09T13:14:58;36.80;32.30
5868;DHT22;2960;49.142;7.768;2023-07-09T13:17:29;36.70;32.10
5868;DHT22;2960;49.142;7.768;2023-07-09T13:19:56;36.80;32.10
5868;DHT22;2960;49.142;7.768;2023-07-09T13:22:25;36.70;32.10
5868;DHT22;2960;49.142;7.768;2023-07-09T13:24:52;36.70;31.80
5868;DHT22;2960;49.142;7.768;2023-07-09T13:27:20;36.70;31.80
5868;DHT22;2960;49.142;7.768;2023-07-09T13:29:48;36.60;31.60
5868;DHT22;2960;49.142;7.768;2023-07-09T13:32:16;36.60;31.70
5868;DHT22;2960;49.142;7.768;2023-07-09T13:34:43;36.50;31.80
5868;DHT22;2960;49.142;7.768;2023-07-09T13:37:13;36.50;31.80
5868;DHT22;2960;49.142;7.768;2023-07-09T13:39:42;36.50;31.60
5868;DHT22;2960;49.142;7.768;2023-07-09T13:42:12;36.50;31.70
5868;DHT22;2960;49.142;7.768;2023-07-09T13:44:43;36.50;31.80
5868;DHT22;2960;49.142;7.768;2023-07-09T13:47:13;36.40;31.70
5868;DHT22;2960;49.142;7.768;2023-07-09T13:49:42;36.50;31.80
5868;DHT22;2960;49.142;7.768;2023-07-09T13:52:15;36.40;31.70
5868;DHT22;2960;49.142;7.768;2023-07-09T13:54:43;36.40;31.60
5868;DHT22;2960;49.142;7.768;2023-07-09T13:57:15;36.40;31.70
5868;DHT22;2960;49.142;7.768;2023-07-09T13:59:46;36.40;31.70
5868;DHT22;2960;49.142;7.768;2023-07-09T14:02:31;36.40;31.90
5868;DHT22;2960;49.142;7.768;2023-07-09T14:04:58;36.40;31.80
5868;DHT22;2960;49.142;7.768;2023-07-09T14:07:28;36.40;31.90
5868;DHT22;2960;49.142;7.768;2023-07-09T14:09:57;36.40;31.90
5868;DHT22;2960;49.142;7.768;2023-07-09T14:12:25;36.30;32.00
5868;DHT22;2960;49.142;7.768;2023-07-09T14:14:57;36.30;32.10
5868;DHT22;2960;49.142;7.768;2023-07-09T14:17:25;36.30;32.20
5868;DHT22;2960;49.142;7.768;2023-07-09T14:19:52;36.30;32.00
5868;DHT22;2960;49.142;7.768;2023-07-09T14:22:27;36.30;32.10
5868;DHT22;2960;49.142;7.768;2023-07-09T14:24:59;36.30;32.20
5868;DHT22;2960;49.142;7.768;2023-07-09T14:27:27;36.30;32.30
5868;DHT22;2960;49.142;7.768;2023-07-09T14:29:56;36.30;32.30
5868;DHT22;2960;49.142;7.768;2023-07-09T14:32:32;36.30;32.30
5868;DHT22;2960;49.142;7.768;2023-07-09T14:35:01;36.30;32.50
5868;DHT22;2960;49.142;7.768;2023-07-09T14:37:30;36.20;32.40
5868;DHT22;2960;49.142;7.768;2023-07-09T14:39:57;36.20;32.40
5868;DHT22;2960;49.142;7.768;2023-07-09T14:42:24;36.20;32.50
5868;DHT22;2960;49.142;7.768;2023-07-09T14:44:51;36.20;32.40
5868;DHT22;2960;49.142;7.768;2023-07-09T14:47:21;36.20;32.40
5868;DHT22;2960;49.142;7.768;2023-07-09T14:49:49;36.10;32.90
5868;DHT22;2960;49.142;7.768;2023-07-09T14:52:19;36.10;32.30
5868;DHT22;2960;49.142;7.768;2023-07-09T14:54:47;36.10;32.30
5868;DHT22;2960;49.142;7.768;2023-07-09T14:57:18;36.10;32.30
5868;DHT22;2960;49.142;7.768;2023-07-09T14:59:47;36.00;32.20
5868;DHT22;2960;49.142;7.768;2023-07-09T15:02:23;36.00;32.30
5868;DHT22;2960;49.142;7.768;2023-07-09T15:04:55;36.00;32.40
5868;DHT22;2960;49.142;7.768;2023-07-09T15:07:22;35.90;32.50
5868;DHT22;2960;49.142;7.768;2023-07-09T15:09:55;35.90;32.60
5868;DHT22;2960;49.142;7.768;2023-07-09T15:12:27;35.90;32.80
5868;DHT22;2960;49.142;7.768;2023-07-09T15:15:01;35.80;32.80
5868;DHT22;2960;49.142;7.768;2023-07-09T15:17:34;35.70;33.00
5868;DHT22;2960;49.142;7.768;2023-07-09T15:20:01;35.70;33.20
5868;DHT22;2960;49.142;7.768;2023-07-09T15:22:32;35.60;33.30
5868;DHT22;2960;49.142;7.768;2023-07-09T15:25:00;35.60;33.40
5868;DHT22;2960;49.142;7.768;2023-07-09T15:27:27;35.50;33.50
5868;DHT22;2960;49.142;7.768;2023-07-09T15:29:54;35.40;33.50
5868;DHT22;2960;49.142;7.768;2023-07-09T15:32:21;35.40;33.50
5868;DHT22;2960;49.142;7.768;2023-07-09T15:34:50;35.40;33.80
5868;DHT22;2960;49.142;7.768;2023-07-09T15:37:26;35.30;33.90
5868;DHT22;2960;49.142;7.768;2023-07-09T15:39:53;35.20;33.90
5868;DHT22;2960;49.142;7.768;2023-07-09T15:42:20;35.20;34.00
5868;DHT22;2960;49.142;7.768;2023-07-09T15:44:47;35.10;34.70
5868;DHT22;2960;49.142;7.768;2023-07-09T15:47:18;35.10;34.70
5868;DHT22;2960;49.142;7.768;2023-07-09T15:49:48;35.00;34.20
5868;DHT22;2960;49.142;7.768;2023-07-09T15:52:16;35.00;34.30
5868;DHT22;2960;49.142;7.768;2023-07-09T15:54:44;35.00;34.20
5868;DHT22;2960;49.142;7.768;2023-07-09T15:57:13;35.00;34.10
5868;DHT22;2960;49.142;7.768;2023-07-09T15:59:42;35.00;34.30
5868;DHT22;2960;49.142;7.768;2023-07-09T16:02:12;35.00;34.20
5868;DHT22;2960;49.142;7.768;2023-07-09T16:04:42;35.00;34.20
5868;DHT22;2960;49.142;7.768;2023-07-09T16:07:10;35.00;34.30
5868;DHT22;2960;49.142;7.768;2023-07-09T16:09:37;35.00;34.80
5868;DHT22;2960;49.142;7.768;2023-07-09T16:12:09;35.00;34.00
5868;DHT22;2960;49.142;7.768;2023-07-09T16:14:38;35.00;34.00
5868;DHT22;2960;49.142;7.768;2023-07-09T16:17:10;35.00;33.80
5868;DHT22;2960;49.142;7.768;2023-07-09T16:19:37;35.00;33.70